sensor_id;sensor_type;location;lat;lon;timestamp;temperature;humidity
52321;DHT22;38261;54.090;13.382;2023-06-14T00:00:14;14.00;99.90
52321;DHT22;38261;54.090;13.382;2023-06-14T00:01:37;14.00;99.90
52321;DHT22;38261;54.090;13.382;2023-06-14T00:03:00;14.00;99.90
52321;DHT22;38261;54.090;13.382;2023-06-14T00:04:22;14.10;99.90
52321;DHT22;38261;54.090;13.382;2023-06-14T00:05:47;14.10;99.90
52321;DHT22;38261;54.090;13.382;2023-06-14T00:07:10;14.20;99.90
52321;DHT22;38261;54.090;13.382;2023-06-14T00:08:34;14.20;99.90
52321;DHT22;38261;54.090;13.382;2023-06-14T00:09:57;14.20;99.90
52321;DHT22;38261;54.090;13.382;2023-06-14T00:11:19;14.30;99.90
52321;DHT22;38261;54.090;13.382;2023-06-14T00:12:41;14.30;99.90
52321;DHT22;38261;54.090;13.382;2023-06-14T00:14:03;14.30;99.90
52321;DHT22;38261;54.090;13.382;2023-06-14T00:15:25;14.30;99.90
52321;DHT22;38261;54.090;13.382;2023-06-14T00:16:48;14.30;99.90
52321;DHT22;38261;54.090;13.382;2023-06-14T00:18:10;14.30;99.90
52321;DHT22;38261;54.090;13.382;2023-06-14T00:19:33;14.30;99.90
52321;DHT22;38261;54.090;13.382;2023-06-14T00:20:58;14.20;99.90
52321;DHT22;38261;54.090;13.382;2023-06-14T00:22:20;14.20;99.90
52321;DHT22;38261;54.090;13.382;2023-06-14T00:23:43;14.20;99.90
52321;DHT22;38261;54.090;13.382;2023-06-14T00:25:06;14.20;99.90
52321;DHT22;38261;54.090;13.382;2023-06-14T00:26:48;14.20;99.90
52321;DHT22;38261;54.090;13.382;2023-06-14T00:28:10;14.20;99.90
52321;DHT22;38261;54.090;13.382;2023-06-14T00:29:32;14.20;99.90
52321;DHT22;38261;54.090;13.382;2023-06-14T00:30:54;14.20;99.90
52321;DHT22;38261;54.090;13.382;2023-06-14T00:32:18;14.20;99.90
52321;DHT22;38261;54.090;13.382;2023-06-14T00:33:40;14.20;99.90
52321;DHT22;38261;54.090;13.382;2023-06-14T00:35:02;14.10;99.90
52321;DHT22;38261;54.090;13.382;2023-06-14T00:36:25;14.10;99.90
52321;DHT22;38261;54.090;13.382;2023-06-14T00:37:47;14.10;99.90
52321;DHT22;38261;54.090;13.382;2023-06-14T00:39:09;14.10;99.90
52321;DHT22;38261;54.090;13.382;2023-06-14T00:40:31;14.10;99.90
52321;DHT22;38261;54.090;13.382;2023-06-14T00:41:54;14.20;99.90
52321;DHT22;38261;54.090;13.382;2023-06-14T00:43:16;14.10;99.90
52321;DHT22;38261;54.090;13.382;2023-06-14T00:44:38;14.10;99.90
52321;DHT22;38261;54.090;13.382;2023-06-14T00:46:00;14.10;99.90
52321;DHT22;38261;54.090;13.382;2023-06-14T00:47:23;14.10;99.90
52321;DHT22;38261;54.090;13.382;2023-06-14T00:48:46;14.10;99.90
52321;DHT22;38261;54.090;13.382;2023-06-14T00:50:09;14.10;99.90
52321;DHT22;38261;54.090;13.382;2023-06-14T00:51:32;14.10;99.90
52321;DHT22;38261;54.090;13.382;2023-06-14T00:52:54;14.10;99.90
52321;DHT22;38261;54.090;13.382;2023-06-14T00:54:16;14.00;99.90
52321;DHT22;38261;54.090;13.382;2023-06-14T00:55:38;14.00;99.90
52321;DHT22;38261;54.090;13.382;2023-06-14T00:57:01;14.00;99.90
52321;DHT22;38261;54.090;13.382;2023-06-14T00:58:23;14.00;99.90
52321;DHT22;38261;54.090;13.382;2023-06-14T00:59:47;14.00;99.90
52321;DHT22;38261;54.090;13.382;2023-06-14T01:01:10;14.00;99.90
52321;DHT22;38261;54.090;13.382;2023-06-14T01:02:32;13.90;99.90
52321;DHT22;38261;54.090;13.382;2023-06-14T01:03:54;13.90;99.90
52321;DHT22;38261;54.090;13.382;2023-06-14T01:05:17;13.90;99.90
52321;DHT22;38261;54.090;13.382;2023-06-14T01:07:02;13.90;99.90
52321;DHT22;38261;54.090;13.382;2023-06-14T01:08:39;13.90;99.90
52321;DHT22;38261;54.090;13.382;2023-06-14T01:13:29;13.90;99.90
52321;DHT22;38261;54.090;13.382;2023-06-14T01:14:54;13.90;99.90
52321;DHT22;38261;54.090;13.382;2023-06-14T01:16:17;13.90;99.90
52321;DHT22;38261;54.090;13.382;2023-06-14T01:17:41;13.90;99.90
52321;DHT22;38261;54.090;13.382;2023-06-14T01:19:06;13.90;99.90
52321;DHT22;38261;54.090;13.382;2023-06-14T01:20:34;13.90;99.90
52321;DHT22;38261;54.090;13.382;2023-06-14T01:22:01;13.90;99.90
52321;DHT22;38261;54.090;13.382;2023-06-14T01:23:24;13.90;99.90
52321;DHT22;38261;54.090;13.382;2023-06-14T01:24:47;13.90;99.90
52321;DHT22;38261;54.090;13.382;2023-06-14T01:26:09;13.90;99.90
52321;DHT22;38261;54.090;13.382;2023-06-14T01:27:31;13.80;99.90
52321;DHT22;38261;54.090;13.382;2023-06-14T01:28:54;13.80;99.90
52321;DHT22;38261;54.090;13.382;2023-06-14T01:30:21;13.80;99.90
52321;DHT22;38261;54.090;13.382;2023-06-14T01:31:45;13.80;99.90
52321;DHT22;38261;54.090;13.382;2023-06-14T01:33:08;13.80;99.90
52321;DHT22;38261;54.090;13.382;2023-06-14T01:34:31;13.80;99.90
52321;DHT22;38261;54.090;13.382;2023-06-14T01:35:55;13.70;99.90
52321;DHT22;38261;54.090;13.382;2023-06-14T01:37:19;13.70;99.90
52321;DHT22;38261;54.090;13.382;2023-06-14T01:38:42;13.70;99.90
52321;DHT22;38261;54.090;13.382;2023-06-14T01:40:06;13.70;99.90
52321;DHT22;38261;54.090;13.382;2023-06-14T01:41:30;13.70;99.90
52321;DHT22;38261;54.090;13.382;2023-06-14T01:42:53;13.70;99.90
52321;DHT22;38261;54.090;13.382;2023-06-14T01:44:18;13.70;99.90
52321;DHT22;38261;54.090;13.382;2023-06-14T01:45:46;13.80;99.90
52321;DHT22;38261;54.090;13.382;2023-06-14T01:47:09;13.80;99.90
52321;DHT22;38261;54.090;13.382;2023-06-14T01:48:32;13.80;99.90
52321;DHT22;38261;54.090;13.382;2023-06-14T01:49:54;13.80;99.90
52321;DHT22;38261;54.090;13.382;2023-06-14T01:51:16;13.90;99.90
52321;DHT22;38261;54.090;13.382;2023-06-14T01:52:38;13.90;99.90
52321;DHT22;38261;54.090;13.382;2023-06-14T01:54:01;13.90;99.90
52321;DHT22;38261;54.090;13.382;2023-06-14T01:55:23;13.90;99.90
52321;DHT22;38261;54.090;13.382;2023-06-14T01:56:46;13.90;99.90
52321;DHT22;38261;54.090;13.382;2023-06-14T01:58:09;13.90;99.90
52321;DHT22;38261;54.090;13.382;2023-06-14T01:59:31;13.90;99.90
52321;DHT22;38261;54.090;13.382;2023-06-14T02:00:56;13.90;99.90
52321;DHT22;38261;54.090;13.382;2023-06-14T02:02:20;13.90;99.90
52321;DHT22;38261;54.090;13.382;2023-06-14T02:03:42;13.90;99.90
52321;DHT22;38261;54.090;13.382;2023-06-14T02:05:07;13.90;99.90
52321;DHT22;38261;54.090;13.382;2023-06-14T02:06:29;13.90;99.90
52321;DHT22;38261;54.090;13.382;2023-06-14T02:07:52;13.80;99.90
52321;DHT22;38261;54.090;13.382;2023-06-14T02:09:15;13.80;99.90
52321;DHT22;38261;54.090;13.382;2023-06-14T02:10:37;13.80;99.90
52321;DHT22;38261;54.090;13.382;2023-06-14T02:11:59;13.80;99.90
52321;DHT22;38261;54.090;13.382;2023-06-14T02:13:21;13.80;99.90
52321;DHT22;38261;54.090;13.382;2023-06-14T02:14:44;13.70;99.90
52321;DHT22;38261;54.090;13.382;2023-06-14T02:16:06;13.70;99.90
52321;DHT22;38261;54.090;13.382;2023-06-14T02:17:29;13.70;99.90
52321;DHT22;38261;54.090;13.382;2023-06-14T02:18:51;13.60;99.90
52321;DHT22;38261;54.090;13.382;2023-06-14T02:20:13;13.60;99.90
52321;DHT22;38261;54.090;13.382;2023-06-14T02:21:37;13.60;99.90
52321;DHT22;38261;54.090;13.382;2023-06-14T02:23:00;13.60;99.90
52321;DHT22;38261;54.090;13.382;2023-06-14T02:24:22;13.60;99.90
52321;DHT22;38261;54.090;13.382;2023-06-14T02:25:45;13.50;99.90
52321;DHT22;38261;54.090;13.382;2023-06-14T02:27:09;13.50;99.90
52321;DHT22;38261;54.090;13.382;2023-06-14T02:28:32;13.50;99.90
52321;DHT22;38261;54.090;13.382;2023-06-14T02:29:54;13.50;99.90
52321;DHT22;38261;54.090;13.382;2023-06-14T02:31:16;13.50;99.90
52321;DHT22;38261;54.090;13.382;2023-06-14T02:34:08;13.50;99.90
52321;DHT22;38261;54.090;13.382;2023-06-14T02:35:31;13.50;99.90
52321;DHT22;38261;54.090;13.382;2023-06-14T02:36:53;13.50;99.90
52321;DHT22;38261;54.090;13.382;2023-06-14T02:38:15;13.40;99.90
52321;DHT22;38261;54.090;13.382;2023-06-14T02:39:37;13.40;99.90
52321;DHT22;38261;54.090;13.382;2023-06-14T02:40:59;13.40;99.90
52321;DHT22;38261;54.090;13.382;2023-06-14T02:42:23;13.40;99.90
52321;DHT22;38261;54.090;13.382;2023-06-14T02:43:45;13.40;99.90
52321;DHT22;38261;54.090;13.382;2023-06-14T02:45:08;13.40;99.90
52321;DHT22;38261;54.090;13.382;2023-06-14T02:46:30;13.40;99.90
52321;DHT22;38261;54.090;13.382;2023-06-14T02:47:52;13.40;99.90
52321;DHT22;38261;54.090;13.382;2023-06-14T02:49:15;13.40;99.90
52321;DHT22;38261;54.090;13.382;2023-06-14T02:50:37;13.40;99.90
52321;DHT22;38261;54.090;13.382;2023-06-14T02:51:59;13.40;99.90
52321;DHT22;38261;54.090;13.382;2023-06-14T02:53:21;13.40;99.90
52321;DHT22;38261;54.090;13.382;2023-06-14T02:54:43;13.40;99.90
52321;DHT22;38261;54.090;13.382;2023-06-14T02:56:05;13.50;99.90
52321;DHT22;38261;54.090;13.382;2023-06-14T02:57:27;13.50;99.90
52321;DHT22;38261;54.090;13.382;2023-06-14T02:58:49;13.50;99.90
52321;DHT22;38261;54.090;13.382;2023-06-14T03:00:12;13.50;99.90
52321;DHT22;38261;54.090;13.382;2023-06-14T03:01:36;13.60;99.90
52321;DHT22;38261;54.090;13.382;2023-06-14T03:03:01;13.60;99.90
52321;DHT22;38261;54.090;13.382;2023-06-14T03:04:24;13.60;99.90
52321;DHT22;38261;54.090;13.382;2023-06-14T03:05:48;13.60;99.90
52321;DHT22;38261;54.090;13.382;2023-06-14T03:07:11;13.70;99.90
52321;DHT22;38261;54.090;13.382;2023-06-14T03:08:34;13.70;99.90
52321;DHT22;38261;54.090;13.382;2023-06-14T03:10:00;13.80;99.90
52321;DHT22;38261;54.090;13.382;2023-06-14T03:11:23;13.80;99.90
52321;DHT22;38261;54.090;13.382;2023-06-14T03:12:45;13.90;99.90
52321;DHT22;38261;54.090;13.382;2023-06-14T03:14:07;13.90;99.90
52321;DHT22;38261;54.090;13.382;2023-06-14T03:15:30;14.00;99.90
52321;DHT22;38261;54.090;13.382;2023-06-14T03:16:53;14.10;99.90
52321;DHT22;38261;54.090;13.382;2023-06-14T03:18:18;14.10;99.90
52321;DHT22;38261;54.090;13.382;2023-06-14T03:19:41;14.20;99.90
52321;DHT22;38261;54.090;13.382;2023-06-14T03:21:03;14.30;99.90
52321;DHT22;38261;54.090;13.382;2023-06-14T03:22:25;14.30;99.90
52321;DHT22;38261;54.090;13.382;2023-06-14T03:23:48;14.50;99.90
52321;DHT22;38261;54.090;13.382;2023-06-14T03:25:11;14.80;99.90
52321;DHT22;38261;54.090;13.382;2023-06-14T03:26:33;15.40;99.90
52321;DHT22;38261;54.090;13.382;2023-06-14T03:27:56;16.10;99.90
52321;DHT22;38261;54.090;13.382;2023-06-14T03:29:18;16.90;99.90
52321;DHT22;38261;54.090;13.382;2023-06-14T03:30:40;17.50;99.90
52321;DHT22;38261;54.090;13.382;2023-06-14T03:32:03;18.20;99.90
52321;DHT22;38261;54.090;13.382;2023-06-14T03:33:25;18.80;99.90
52321;DHT22;38261;54.090;13.382;2023-06-14T03:34:47;19.40;99.90
52321;DHT22;38261;54.090;13.382;2023-06-14T03:36:10;20.00;99.90
52321;DHT22;38261;54.090;13.382;2023-06-14T03:37:32;20.50;99.90
52321;DHT22;38261;54.090;13.382;2023-06-14T03:38:54;20.90;99.90
52321;DHT22;38261;54.090;13.382;2023-06-14T03:40:18;21.30;99.90
52321;DHT22;38261;54.090;13.382;2023-06-14T03:41:41;21.70;99.90
52321;DHT22;38261;54.090;13.382;2023-06-14T03:43:03;22.00;99.90
52321;DHT22;38261;54.090;13.382;2023-06-14T03:44:26;22.30;99.90
52321;DHT22;38261;54.090;13.382;2023-06-14T03:45:49;22.60;99.90
52321;DHT22;38261;54.090;13.382;2023-06-14T03:47:11;22.80;99.90
52321;DHT22;38261;54.090;13.382;2023-06-14T03:48:33;23.10;99.90
52321;DHT22;38261;54.090;13.382;2023-06-14T03:49:55;23.30;99.90
52321;DHT22;38261;54.090;13.382;2023-06-14T03:59:58;25.00;99.90
52321;DHT22;38261;54.090;13.382;2023-06-14T04:01:20;25.30;99.90
52321;DHT22;38261;54.090;13.382;2023-06-14T04:02:43;25.50;99.90
52321;DHT22;38261;54.090;13.382;2023-06-14T04:04:06;25.80;99.90
52321;DHT22;38261;54.090;13.382;2023-06-14T04:05:28;26.10;99.90
52321;DHT22;38261;54.090;13.382;2023-06-14T04:06:50;26.30;99.90
52321;DHT22;38261;54.090;13.382;2023-06-14T04:19:27;28.40;99.90
52321;DHT22;38261;54.090;13.382;2023-06-14T04:20:50;28.40;99.90
52321;DHT22;38261;54.090;13.382;2023-06-14T04:22:12;28.60;99.90
52321;DHT22;38261;54.090;13.382;2023-06-14T04:23:34;28.80;99.90
52321;DHT22;38261;54.090;13.382;2023-06-14T04:24:57;28.90;99.90
52321;DHT22;38261;54.090;13.382;2023-06-14T04:26:26;29.20;99.90
52321;DHT22;38261;54.090;13.382;2023-06-14T04:27:52;29.40;99.90
52321;DHT22;38261;54.090;13.382;2023-06-14T04:29:14;29.60;99.90
52321;DHT22;38261;54.090;13.382;2023-06-14T04:30:38;29.60;99.90
52321;DHT22;38261;54.090;13.382;2023-06-14T04:32:02;30.00;99.90
52321;DHT22;38261;54.090;13.382;2023-06-14T04:33:24;30.00;99.90
52321;DHT22;38261;54.090;13.382;2023-06-14T04:34:48;29.90;99.90
52321;DHT22;38261;54.090;13.382;2023-06-14T04:36:11;29.80;99.90
52321;DHT22;38261;54.090;13.382;2023-06-14T04:37:35;29.70;99.90
52321;DHT22;38261;54.090;13.382;2023-06-14T04:39:02;29.70;99.90
52321;DHT22;38261;54.090;13.382;2023-06-14T04:40:25;29.90;99.90
52321;DHT22;38261;54.090;13.382;2023-06-14T04:41:47;30.20;99.90
52321;DHT22;38261;54.090;13.382;2023-06-14T04:43:09;30.40;99.90
52321;DHT22;38261;54.090;13.382;2023-06-14T04:44:34;30.40;99.90
52321;DHT22;38261;54.090;13.382;2023-06-14T04:45:56;30.70;99.90
52321;DHT22;38261;54.090;13.382;2023-06-14T04:48:42;30.90;99.90
52321;DHT22;38261;54.090;13.382;2023-06-14T04:50:05;30.80;99.90
52321;DHT22;38261;54.090;13.382;2023-06-14T04:51:27;31.10;99.90
52321;DHT22;38261;54.090;13.382;2023-06-14T04:52:52;31.30;99.90
52321;DHT22;38261;54.090;13.382;2023-06-14T04:54:15;31.20;99.90
52321;DHT22;38261;54.090;13.382;2023-06-14T04:55:38;31.10;99.90
52321;DHT22;38261;54.090;13.382;2023-06-14T05:16:26;29.80;99.90
52321;DHT22;38261;54.090;13.382;2023-06-14T05:19:16;29.40;99.90
52321;DHT22;38261;54.090;13.382;2023-06-14T05:22:05;28.70;99.90
52321;DHT22;38261;54.090;13.382;2023-06-14T05:23:27;28.20;99.90
52321;DHT22;38261;54.090;13.382;2023-06-14T05:24:49;27.90;99.90
52321;DHT22;38261;54.090;13.382;2023-06-14T05:26:11;27.70;99.90
52321;DHT22;38261;54.090;13.382;2023-06-14T05:27:34;27.60;99.90
52321;DHT22;38261;54.090;13.382;2023-06-14T05:28:58;27.50;99.90
52321;DHT22;38261;54.090;13.382;2023-06-14T05:30:22;27.50;99.90
52321;DHT22;38261;54.090;13.382;2023-06-14T05:31:44;27.40;99.90
52321;DHT22;38261;54.090;13.382;2023-06-14T05:33:07;27.50;99.90
52321;DHT22;38261;54.090;13.382;2023-06-14T05:34:29;27.60;99.90
52321;DHT22;38261;54.090;13.382;2023-06-14T05:35:51;27.60;99.90
52321;DHT22;38261;54.090;13.382;2023-06-14T05:37:13;27.50;99.90
52321;DHT22;38261;54.090;13.382;2023-06-14T05:38:35;27.30;99.90
52321;DHT22;38261;54.090;13.382;2023-06-14T05:39:57;27.20;99.90
52321;DHT22;38261;54.090;13.382;2023-06-14T05:41:20;27.10;99.90
52321;DHT22;38261;54.090;13.382;2023-06-14T05:42:42;26.90;99.90
52321;DHT22;38261;54.090;13.382;2023-06-14T05:44:04;26.70;99.90
52321;DHT22;38261;54.090;13.382;2023-06-14T05:45:27;26.50;99.90
52321;DHT22;38261;54.090;13.382;2023-06-14T05:46:49;26.50;99.90
52321;DHT22;38261;54.090;13.382;2023-06-14T05:48:11;26.70;99.90
52321;DHT22;38261;54.090;13.382;2023-06-14T05:49:33;27.00;99.90
52321;DHT22;38261;54.090;13.382;2023-06-14T05:50:55;27.10;99.90
52321;DHT22;38261;54.090;13.382;2023-06-14T05:52:17;27.10;99.90
52321;DHT22;38261;54.090;13.382;2023-06-14T05:53:40;27.20;99.90
52321;DHT22;38261;54.090;13.382;2023-06-14T05:55:03;27.50;99.90
52321;DHT22;38261;54.090;13.382;2023-06-14T05:56:25;27.60;99.90
52321;DHT22;38261;54.090;13.382;2023-06-14T05:57:48;27.60;99.90
52321;DHT22;38261;54.090;13.382;2023-06-14T05:59:10;27.60;99.90
52321;DHT22;38261;54.090;13.382;2023-06-14T06:00:32;27.30;99.90
52321;DHT22;38261;54.090;13.382;2023-06-14T06:01:55;27.10;99.90
52321;DHT22;38261;54.090;13.382;2023-06-14T06:03:17;26.80;99.90
52321;DHT22;38261;54.090;13.382;2023-06-14T06:04:39;26.30;99.90
52321;DHT22;38261;54.090;13.382;2023-06-14T06:06:01;26.10;99.90
52321;DHT22;38261;54.090;13.382;2023-06-14T06:07:25;25.80;99.90
52321;DHT22;38261;54.090;13.382;2023-06-14T06:08:47;25.60;99.90
52321;DHT22;38261;54.090;13.382;2023-06-14T06:10:09;25.40;99.90
52321;DHT22;38261;54.090;13.382;2023-06-14T06:11:31;25.40;99.90
52321;DHT22;38261;54.090;13.382;2023-06-14T06:13:09;25.30;99.90
52321;DHT22;38261;54.090;13.382;2023-06-14T06:14:33;25.30;99.90
52321;DHT22;38261;54.090;13.382;2023-06-14T06:15:55;25.40;99.90
52321;DHT22;38261;54.090;13.382;2023-06-14T06:17:18;25.50;99.90
52321;DHT22;38261;54.090;13.382;2023-06-14T06:18:40;25.20;99.90
52321;DHT22;38261;54.090;13.382;2023-06-14T06:20:05;25.10;99.90
52321;DHT22;38261;54.090;13.382;2023-06-14T06:21:30;25.20;99.90
52321;DHT22;38261;54.090;13.382;2023-06-14T06:22:52;25.10;99.90
52321;DHT22;38261;54.090;13.382;2023-06-14T06:24:14;25.00;99.90
52321;DHT22;38261;54.090;13.382;2023-06-14T06:25:37;24.90;99.90
52321;DHT22;38261;54.090;13.382;2023-06-14T06:26:59;24.70;99.90
52321;DHT22;38261;54.090;13.382;2023-06-14T06:28:22;24.70;99.90
52321;DHT22;38261;54.090;13.382;2023-06-14T06:29:44;24.60;99.90
52321;DHT22;38261;54.090;13.382;2023-06-14T06:31:06;24.40;99.90
52321;DHT22;38261;54.090;13.382;2023-06-14T06:32:29;24.00;99.90
52321;DHT22;38261;54.090;13.382;2023-06-14T06:33:51;23.50;99.90
52321;DHT22;38261;54.090;13.382;2023-06-14T06:35:13;22.90;99.90
52321;DHT22;38261;54.090;13.382;2023-06-14T06:36:36;22.10;99.90
52321;DHT22;38261;54.090;13.382;2023-06-14T06:37:59;21.50;99.90
52321;DHT22;38261;54.090;13.382;2023-06-14T06:39:22;21.20;99.90
52321;DHT22;38261;54.090;13.382;2023-06-14T06:40:44;20.90;99.90
52321;DHT22;38261;54.090;13.382;2023-06-14T06:42:06;20.70;99.90
52321;DHT22;38261;54.090;13.382;2023-06-14T06:43:29;20.60;99.90
52321;DHT22;38261;54.090;13.382;2023-06-14T06:44:51;20.40;99.90
52321;DHT22;38261;54.090;13.382;2023-06-14T06:46:13;20.20;99.90
52321;DHT22;38261;54.090;13.382;2023-06-14T06:47:35;20.20;99.90
52321;DHT22;38261;54.090;13.382;2023-06-14T06:48:57;20.20;99.90
52321;DHT22;38261;54.090;13.382;2023-06-14T06:50:20;20.20;99.90
52321;DHT22;38261;54.090;13.382;2023-06-14T06:51:42;20.20;99.90
52321;DHT22;38261;54.090;13.382;2023-06-14T06:53:07;20.20;99.90
52321;DHT22;38261;54.090;13.382;2023-06-14T06:54:30;20.20;99.90
52321;DHT22;38261;54.090;13.382;2023-06-14T06:55:52;20.20;99.90
52321;DHT22;38261;54.090;13.382;2023-06-14T06:57:14;20.30;99.90
52321;DHT22;38261;54.090;13.382;2023-06-14T06:58:36;20.30;99.90
52321;DHT22;38261;54.090;13.382;2023-06-14T06:59:58;20.40;99.90
52321;DHT22;38261;54.090;13.382;2023-06-14T07:01:21;20.40;99.90
52321;DHT22;38261;54.090;13.382;2023-06-14T07:02:43;20.40;99.90
52321;DHT22;38261;54.090;13.382;2023-06-14T07:04:05;20.50;99.90
52321;DHT22;38261;54.090;13.382;2023-06-14T07:05:27;20.50;99.90
52321;DHT22;38261;54.090;13.382;2023-06-14T07:06:49;20.60;99.90
52321;DHT22;38261;54.090;13.382;2023-06-14T07:08:12;20.70;99.90
52321;DHT22;38261;54.090;13.382;2023-06-14T07:09:34;20.90;99.90
52321;DHT22;38261;54.090;13.382;2023-06-14T07:10:56;21.00;99.90
52321;DHT22;38261;54.090;13.382;2023-06-14T07:12:18;21.10;99.90
52321;DHT22;38261;54.090;13.382;2023-06-14T07:13:40;21.10;99.90
52321;DHT22;38261;54.090;13.382;2023-06-14T07:15:33;21.20;99.90
52321;DHT22;38261;54.090;13.382;2023-06-14T07:16:54;21.20;99.90
52321;DHT22;38261;54.090;13.382;2023-06-14T07:18:16;21.00;99.90
52321;DHT22;38261;54.090;13.382;2023-06-14T07:19:38;20.80;99.90
52321;DHT22;38261;54.090;13.382;2023-06-14T07:21:01;20.70;99.90
52321;DHT22;38261;54.090;13.382;2023-06-14T07:22:24;20.60;99.90
52321;DHT22;38261;54.090;13.382;2023-06-14T07:23:46;20.50;99.90
52321;DHT22;38261;54.090;13.382;2023-06-14T07:25:09;20.40;99.90
52321;DHT22;38261;54.090;13.382;2023-06-14T07:26:35;20.40;99.90
52321;DHT22;38261;54.090;13.382;2023-06-14T07:27:57;20.40;99.90
52321;DHT22;38261;54.090;13.382;2023-06-14T07:29:20;20.40;99.90
52321;DHT22;38261;54.090;13.382;2023-06-14T07:30:43;20.30;99.90
52321;DHT22;38261;54.090;13.382;2023-06-14T07:32:05;20.20;99.90
52321;DHT22;38261;54.090;13.382;2023-06-14T07:33:27;20.00;99.90
52321;DHT22;38261;54.090;13.382;2023-06-14T07:34:50;19.90;99.90
52321;DHT22;38261;54.090;13.382;2023-06-14T07:36:12;19.80;99.90
52321;DHT22;38261;54.090;13.382;2023-06-14T07:37:34;19.70;99.90
52321;DHT22;38261;54.090;13.382;2023-06-14T07:38:57;19.70;99.90
52321;DHT22;38261;54.090;13.382;2023-06-14T07:40:19;19.70;99.90
52321;DHT22;38261;54.090;13.382;2023-06-14T07:41:41;19.60;99.90
52321;DHT22;38261;54.090;13.382;2023-06-14T07:43:03;19.70;99.90
52321;DHT22;38261;54.090;13.382;2023-06-14T07:44:29;19.80;99.90
52321;DHT22;38261;54.090;13.382;2023-06-14T07:45:53;19.90;99.90
52321;DHT22;38261;54.090;13.382;2023-06-14T07:47:28;20.00;99.90
52321;DHT22;38261;54.090;13.382;2023-06-14T07:48:50;20.10;99.90
52321;DHT22;38261;54.090;13.382;2023-06-14T07:50:13;20.20;99.90
52321;DHT22;38261;54.090;13.382;2023-06-14T07:51:35;20.30;99.90
52321;DHT22;38261;54.090;13.382;2023-06-14T07:52:57;20.30;99.90
52321;DHT22;38261;54.090;13.382;2023-06-14T07:54:20;20.20;99.90
52321;DHT22;38261;54.090;13.382;2023-06-14T07:55:46;20.30;99.90
52321;DHT22;38261;54.090;13.382;2023-06-14T07:57:14;20.30;99.90
52321;DHT22;38261;54.090;13.382;2023-06-14T07:58:36;20.40;99.90
52321;DHT22;38261;54.090;13.382;2023-06-14T07:59:58;20.50;99.90
52321;DHT22;38261;54.090;13.382;2023-06-14T08:01:21;20.70;99.90
52321;DHT22;38261;54.090;13.382;2023-06-14T08:02:44;20.90;99.90
52321;DHT22;38261;54.090;13.382;2023-06-14T08:04:06;20.90;99.90
52321;DHT22;38261;54.090;13.382;2023-06-14T08:05:28;21.00;99.90
52321;DHT22;38261;54.090;13.382;2023-06-14T08:06:51;21.10;99.90
52321;DHT22;38261;54.090;13.382;2023-06-14T08:08:13;21.10;99.90
52321;DHT22;38261;54.090;13.382;2023-06-14T08:09:35;21.30;99.90
52321;DHT22;38261;54.090;13.382;2023-06-14T08:10:59;21.20;99.90
52321;DHT22;38261;54.090;13.382;2023-06-14T08:12:22;21.20;99.90
52321;DHT22;38261;54.090;13.382;2023-06-14T08:13:44;21.10;99.90
52321;DHT22;38261;54.090;13.382;2023-06-14T08:15:06;21.20;99.90
52321;DHT22;38261;54.090;13.382;2023-06-14T08:16:37;21.20;99.90
52321;DHT22;38261;54.090;13.382;2023-06-14T08:17:59;21.20;99.90
52321;DHT22;38261;54.090;13.382;2023-06-14T08:19:22;21.20;99.90
52321;DHT22;38261;54.090;13.382;2023-06-14T08:20:44;21.10;99.90
52321;DHT22;38261;54.090;13.382;2023-06-14T08:22:07;21.10;99.90
52321;DHT22;38261;54.090;13.382;2023-06-14T08:23:29;21.10;99.90
52321;DHT22;38261;54.090;13.382;2023-06-14T08:24:52;21.20;99.90
52321;DHT22;38261;54.090;13.382;2023-06-14T08:26:16;21.30;99.90
52321;DHT22;38261;54.090;13.382;2023-06-14T08:27:38;21.40;99.90
52321;DHT22;38261;54.090;13.382;2023-06-14T08:29:00;21.40;99.90
52321;DHT22;38261;54.090;13.382;2023-06-14T08:30:22;21.50;99.90
52321;DHT22;38261;54.090;13.382;2023-06-14T08:31:45;21.40;99.90
52321;DHT22;38261;54.090;13.382;2023-06-14T08:33:07;21.40;99.90
52321;DHT22;38261;54.090;13.382;2023-06-14T08:34:37;21.30;99.90
52321;DHT22;38261;54.090;13.382;2023-06-14T08:35:59;21.20;99.90
52321;DHT22;38261;54.090;13.382;2023-06-14T08:37:22;21.10;99.90
52321;DHT22;38261;54.090;13.382;2023-06-14T08:38:44;21.10;99.90
52321;DHT22;38261;54.090;13.382;2023-06-14T08:40:22;21.10;99.90
52321;DHT22;38261;54.090;13.382;2023-06-14T08:41:48;21.10;99.90
52321;DHT22;38261;54.090;13.382;2023-06-14T08:43:10;21.10;99.90
52321;DHT22;38261;54.090;13.382;2023-06-14T08:44:33;21.00;99.90
52321;DHT22;38261;54.090;13.382;2023-06-14T08:46:02;20.90;99.90
52321;DHT22;38261;54.090;13.382;2023-06-14T08:47:26;20.70;99.90
52321;DHT22;38261;54.090;13.382;2023-06-14T08:48:51;20.70;99.90
52321;DHT22;38261;54.090;13.382;2023-06-14T08:50:21;20.70;99.90
52321;DHT22;38261;54.090;13.382;2023-06-14T08:51:57;20.80;99.90
52321;DHT22;38261;54.090;13.382;2023-06-14T08:53:20;20.90;99.90
52321;DHT22;38261;54.090;13.382;2023-06-14T08:54:43;20.90;99.90
52321;DHT22;38261;54.090;13.382;2023-06-14T08:56:06;20.90;99.90
52321;DHT22;38261;54.090;13.382;2023-06-14T08:57:30;21.00;99.90
52321;DHT22;38261;54.090;13.382;2023-06-14T08:58:52;21.10;99.90
52321;DHT22;38261;54.090;13.382;2023-06-14T09:00:15;21.10;99.90
52321;DHT22;38261;54.090;13.382;2023-06-14T09:01:38;21.20;99.90
52321;DHT22;38261;54.090;13.382;2023-06-14T09:03:05;21.20;99.90
52321;DHT22;38261;54.090;13.382;2023-06-14T09:04:35;21.10;99.90
52321;DHT22;38261;54.090;13.382;2023-06-14T09:05:57;21.00;99.90
52321;DHT22;38261;54.090;13.382;2023-06-14T09:07:22;21.00;99.90
52321;DHT22;38261;54.090;13.382;2023-06-14T09:08:47;21.10;99.90
52321;DHT22;38261;54.090;13.382;2023-06-14T09:10:14;21.10;99.90
52321;DHT22;38261;54.090;13.382;2023-06-14T09:11:36;21.20;99.90
52321;DHT22;38261;54.090;13.382;2023-06-14T09:13:01;21.20;99.90
52321;DHT22;38261;54.090;13.382;2023-06-14T09:14:26;21.20;99.90
52321;DHT22;38261;54.090;13.382;2023-06-14T09:15:48;21.20;99.90
52321;DHT22;38261;54.090;13.382;2023-06-14T09:17:13;21.30;99.90
52321;DHT22;38261;54.090;13.382;2023-06-14T09:18:40;21.40;99.90
52321;DHT22;38261;54.090;13.382;2023-06-14T09:20:08;21.40;99.90
52321;DHT22;38261;54.090;13.382;2023-06-14T09:21:40;21.40;99.90
52321;DHT22;38261;54.090;13.382;2023-06-14T09:23:03;21.30;99.90
52321;DHT22;38261;54.090;13.382;2023-06-14T09:24:27;21.30;99.90
52321;DHT22;38261;54.090;13.382;2023-06-14T09:25:50;21.30;99.90